sensor_id;sensor_type;location;lat;lon;timestamp;P1;durP1;ratioP1;P2;durP2;ratioP2
78854;SDS011;68206;59.956;30.234;2024-02-21T00:00:30;7.13;;;4.25;;
78854;SDS011;68206;59.956;30.234;2024-02-21T00:02:58;7.72;;;4.05;;
78854;SDS011;68206;59.956;30.234;2024-02-21T00:05:28;9.02;;;3.80;;
78854;SDS011;68206;59.956;30.234;2024-02-21T00:07:58;6.20;;;3.25;;
78854;SDS011;68206;59.956;30.234;2024-02-21T00:10:28;6.97;;;3.85;;
78854;SDS011;68206;59.956;30.234;2024-02-21T00:12:58;9.48;;;3.88;;
78854;SDS011;68206;59.956;30.234;2024-02-21T00:15:27;7.63;;;3.65;;
78854;SDS011;68206;59.956;30.234;2024-02-21T00:17:55;8.50;;;3.63;;
78854;SDS011;68206;59.956;30.234;2024-02-21T00:20:23;8.90;;;4.05;;
78854;SDS011;68206;59.956;30.234;2024-02-21T00:22:53;7.45;;;4.20;;
78854;SDS011;68206;59.956;30.234;2024-02-21T00:25:21;7.70;;;3.92;;
78854;SDS011;68206;59.956;30.234;2024-02-21T00:27:51;8.95;;;4.13;;
78854;SDS011;68206;59.956;30.234;2024-02-21T00:30:21;6.75;;;4.00;;
78854;SDS011;68206;59.956;30.234;2024-02-21T00:32:49;7.53;;;4.25;;
78854;SDS011;68206;59.956;30.234;2024-02-21T00:35:17;7.85;;;4.30;;
78854;SDS011;68206;59.956;30.234;2024-02-21T00:37:45;8.63;;;4.60;;
78854;SDS011;68206;59.956;30.234;2024-02-21T00:40:13;7.10;;;4.25;;
78854;SDS011;68206;59.956;30.234;2024-02-21T00:42:47;9.18;;;4.38;;
78854;SDS011;68206;59.956;30.234;2024-02-21T00:45:16;8.10;;;3.88;;
78854;SDS011;68206;59.956;30.234;2024-02-21T00:47:45;8.25;;;3.80;;
78854;SDS011;68206;59.956;30.234;2024-02-21T00:50:13;10.13;;;3.95;;
78854;SDS011;68206;59.956;30.234;2024-02-21T00:52:42;8.20;;;4.40;;
78854;SDS011;68206;59.956;30.234;2024-02-21T00:55:11;6.45;;;3.90;;
78854;SDS011;68206;59.956;30.234;2024-02-21T00:57:40;10.18;;;4.00;;
78854;SDS011;68206;59.956;30.234;2024-02-21T01:00:09;7.93;;;4.05;;
78854;SDS011;68206;59.956;30.234;2024-02-21T01:02:39;7.53;;;4.35;;
78854;SDS011;68206;59.956;30.234;2024-02-21T01:05:08;6.38;;;4.07;;
78854;SDS011;68206;59.956;30.234;2024-02-21T01:07:36;8.40;;;4.00;;
78854;SDS011;68206;59.956;30.234;2024-02-21T01:10:05;6.97;;;3.83;;
78854;SDS011;68206;59.956;30.234;2024-02-21T01:12:34;7.18;;;3.80;;
78854;SDS011;68206;59.956;30.234;2024-02-21T01:15:03;6.63;;;3.90;;
78854;SDS011;68206;59.956;30.234;2024-02-21T01:17:32;8.75;;;4.40;;
78854;SDS011;68206;59.956;30.234;2024-02-21T01:20:02;7.72;;;3.78;;
78854;SDS011;68206;59.956;30.234;2024-02-21T01:22:32;7.05;;;3.70;;
78854;SDS011;68206;59.956;30.234;2024-02-21T01:25:00;7.43;;;4.03;;
78854;SDS011;68206;59.956;30.234;2024-02-21T01:27:29;7.68;;;4.05;;
78854;SDS011;68206;59.956;30.234;2024-02-21T01:29:57;9.65;;;4.25;;
78854;SDS011;68206;59.956;30.234;2024-02-21T01:32:25;8.85;;;4.10;;
78854;SDS011;68206;59.956;30.234;2024-02-21T01:34:53;7.78;;;4.28;;
78854;SDS011;68206;59.956;30.234;2024-02-21T01:37:23;7.65;;;3.80;;
78854;SDS011;68206;59.956;30.234;2024-02-21T01:39:51;7.07;;;3.83;;
78854;SDS011;68206;59.956;30.234;2024-02-21T01:42:20;7.15;;;3.83;;
78854;SDS011;68206;59.956;30.234;2024-02-21T01:44:48;13.00;;;4.05;;
78854;SDS011;68206;59.956;30.234;2024-02-21T01:47:17;7.57;;;4.25;;
78854;SDS011;68206;59.956;30.234;2024-02-21T01:49:47;7.28;;;3.58;;
78854;SDS011;68206;59.956;30.234;2024-02-21T01:52:15;5.70;;;3.60;;
78854;SDS011;68206;59.956;30.234;2024-02-21T01:54:45;9.23;;;3.83;;
78854;SDS011;68206;59.956;30.234;2024-02-21T01:57:15;5.97;;;3.53;;
78854;SDS011;68206;59.956;30.234;2024-02-21T01:59:43;6.32;;;3.58;;
78854;SDS011;68206;59.956;30.234;2024-02-21T02:02:11;9.45;;;3.47;;
78854;SDS011;68206;59.956;30.234;2024-02-21T02:04:39;8.80;;;4.53;;
78854;SDS011;68206;59.956;30.234;2024-02-21T02:07:08;10.63;;;3.75;;
78854;SDS011;68206;59.956;30.234;2024-02-21T02:09:36;7.60;;;4.50;;
78854;SDS011;68206;59.956;30.234;2024-02-21T02:12:06;8.30;;;4.45;;
78854;SDS011;68206;59.956;30.234;2024-02-21T02:14:35;8.93;;;4.68;;
78854;SDS011;68206;59.956;30.234;2024-02-21T02:17:03;8.77;;;4.03;;
78854;SDS011;68206;59.956;30.234;2024-02-21T02:19:31;5.95;;;3.30;;
78854;SDS011;68206;59.956;30.234;2024-02-21T02:22:01;6.03;;;3.35;;
78854;SDS011;68206;59.956;30.234;2024-02-21T02:24:38;6.22;;;3.60;;
78854;SDS011;68206;59.956;30.234;2024-02-21T02:27:08;9.18;;;3.83;;
78854;SDS011;68206;59.956;30.234;2024-02-21T02:29:36;6.88;;;4.03;;
78854;SDS011;68206;59.956;30.234;2024-02-21T02:32:04;12.30;;;4.10;;
78854;SDS011;68206;59.956;30.234;2024-02-21T02:34:34;9.25;;;3.85;;
78854;SDS011;68206;59.956;30.234;2024-02-21T02:37:03;13.40;;;4.03;;
78854;SDS011;68206;59.956;30.234;2024-02-21T02:39:31;7.88;;;4.35;;
78854;SDS011;68206;59.956;30.234;2024-02-21T02:42:01;6.13;;;3.45;;
78854;SDS011;68206;59.956;30.234;2024-02-21T02:44:30;7.63;;;3.38;;
78854;SDS011;68206;59.956;30.234;2024-02-21T02:46:58;6.63;;;3.53;;
78854;SDS011;68206;59.956;30.234;2024-02-21T02:49:26;9.10;;;3.60;;
78854;SDS011;68206;59.956;30.234;2024-02-21T02:51:54;8.82;;;3.85;;
78854;SDS011;68206;59.956;30.234;2024-02-21T02:54:22;7.78;;;3.80;;
78854;SDS011;68206;59.956;30.234;2024-02-21T02:56:50;7.85;;;3.85;;
78854;SDS011;68206;59.956;30.234;2024-02-21T02:59:21;5.80;;;3.63;;
78854;SDS011;68206;59.956;30.234;2024-02-21T03:01:49;7.28;;;3.67;;
78854;SDS011;68206;59.956;30.234;2024-02-21T03:04:17;5.80;;;3.65;;
78854;SDS011;68206;59.956;30.234;2024-02-21T03:06:46;5.75;;;3.88;;
78854;SDS011;68206;59.956;30.234;2024-02-21T03:09:15;6.72;;;3.65;;
78854;SDS011;68206;59.956;30.234;2024-02-21T03:11:44;13.68;;;4.25;;
78854;SDS011;68206;59.956;30.234;2024-02-21T03:14:12;9.45;;;3.88;;
78854;SDS011;68206;59.956;30.234;2024-02-21T03:16:41;5.45;;;3.53;;
78854;SDS011;68206;59.956;30.234;2024-02-21T03:19:10;8.65;;;3.35;;
78854;SDS011;68206;59.956;30.234;2024-02-21T03:21:38;8.18;;;3.53;;
78854;SDS011;68206;59.956;30.234;2024-02-21T03:24:07;8.38;;;4.38;;
78854;SDS011;68206;59.956;30.234;2024-02-21T03:26:35;5.70;;;3.22;;
78854;SDS011;68206;59.956;30.234;2024-02-21T03:29:03;6.45;;;3.35;;
78854;SDS011;68206;59.956;30.234;2024-02-21T03:31:32;6.88;;;3.47;;
78854;SDS011;68206;59.956;30.234;2024-02-21T03:34:01;7.82;;;3.33;;
78854;SDS011;68206;59.956;30.234;2024-02-21T03:36:30;10.25;;;3.75;;
78854;SDS011;68206;59.956;30.234;2024-02-21T03:38:58;8.20;;;3.80;;
78854;SDS011;68206;59.956;30.234;2024-02-21T03:41:26;6.70;;;3.40;;
78854;SDS011;68206;59.956;30.234;2024-02-21T03:43:54;6.65;;;3.58;;
78854;SDS011;68206;59.956;30.234;2024-02-21T03:46:23;6.50;;;3.20;;
78854;SDS011;68206;59.956;30.234;2024-02-21T03:48:52;8.82;;;3.83;;
78854;SDS011;68206;59.956;30.234;2024-02-21T03:51:21;5.97;;;3.40;;
78854;SDS011;68206;59.956;30.234;2024-02-21T03:53:50;6.60;;;3.33;;
78854;SDS011;68206;59.956;30.234;2024-02-21T03:56:18;8.20;;;3.83;;
78854;SDS011;68206;59.956;30.234;2024-02-21T03:58:46;9.38;;;3.40;;
78854;SDS011;68206;59.956;30.234;2024-02-21T04:01:15;6.35;;;3.70;;
78854;SDS011;68206;59.956;30.234;2024-02-21T04:03:44;9.38;;;3.92;;
78854;SDS011;68206;59.956;30.234;2024-02-21T04:06:12;7.45;;;3.42;;
78854;SDS011;68206;59.956;30.234;2024-02-21T04:08:42;6.85;;;3.53;;
78854;SDS011;68206;59.956;30.234;2024-02-21T04:11:10;6.53;;;3.85;;
78854;SDS011;68206;59.956;30.234;2024-02-21T04:13:38;8.30;;;4.40;;
78854;SDS011;68206;59.956;30.234;2024-02-21T04:16:07;8.40;;;3.63;;
78854;SDS011;68206;59.956;30.234;2024-02-21T04:18:35;11.27;;;4.47;;
78854;SDS011;68206;59.956;30.234;2024-02-21T04:21:03;10.63;;;4.50;;
78854;SDS011;68206;59.956;30.234;2024-02-21T04:23:32;7.75;;;3.67;;
78854;SDS011;68206;59.956;30.234;2024-02-21T04:26:02;7.95;;;4.28;;
78854;SDS011;68206;59.956;30.234;2024-02-21T04:28:31;11.25;;;3.88;;
78854;SDS011;68206;59.956;30.234;2024-02-21T04:30:59;9.85;;;4.53;;
78854;SDS011;68206;59.956;30.234;2024-02-21T04:33:28;9.13;;;4.57;;
78854;SDS011;68206;59.956;30.234;2024-02-21T04:35:56;10.35;;;4.80;;
78854;SDS011;68206;59.956;30.234;2024-02-21T04:38:25;14.20;;;4.65;;
78854;SDS011;68206;59.956;30.234;2024-02-21T04:40:54;11.80;;;4.50;;
78854;SDS011;68206;59.956;30.234;2024-02-21T04:43:26;8.02;;;4.68;;
78854;SDS011;68206;59.956;30.234;2024-02-21T04:45:54;12.23;;;5.53;;
78854;SDS011;68206;59.956;30.234;2024-02-21T04:48:23;14.50;;;5.90;;
78854;SDS011;68206;59.956;30.234;2024-02-21T04:50:51;10.45;;;5.68;;
78854;SDS011;68206;59.956;30.234;2024-02-21T04:53:19;12.32;;;5.45;;
78854;SDS011;68206;59.956;30.234;2024-02-21T04:55:48;11.70;;;5.55;;
78854;SDS011;68206;59.956;30.234;2024-02-21T04:58:16;10.88;;;5.93;;
78854;SDS011;68206;59.956;30.234;2024-02-21T05:00:46;11.82;;;6.00;;
78854;SDS011;68206;59.956;30.234;2024-02-21T05:03:15;9.18;;;6.30;;
78854;SDS011;68206;59.956;30.234;2024-02-21T05:05:43;9.82;;;5.85;;
78854;SDS011;68206;59.956;30.234;2024-02-21T05:08:11;9.95;;;6.00;;
78854;SDS011;68206;59.956;30.234;2024-02-21T05:10:39;8.65;;;5.40;;
78854;SDS011;68206;59.956;30.234;2024-02-21T05:13:08;9.68;;;6.22;;
78854;SDS011;68206;59.956;30.234;2024-02-21T05:15:36;10.23;;;5.40;;
78854;SDS011;68206;59.956;30.234;2024-02-21T05:18:06;8.10;;;5.25;;
78854;SDS011;68206;59.956;30.234;2024-02-21T05:20:34;10.02;;;4.53;;
78854;SDS011;68206;59.956;30.234;2024-02-21T05:23:03;9.57;;;5.18;;
78854;SDS011;68206;59.956;30.234;2024-02-21T05:25:31;6.47;;;4.53;;
78854;SDS011;68206;59.956;30.234;2024-02-21T05:28:00;10.65;;;4.45;;
78854;SDS011;68206;59.956;30.234;2024-02-21T05:30:29;10.35;;;4.30;;
78854;SDS011;68206;59.956;30.234;2024-02-21T05:32:57;7.82;;;5.00;;
78854;SDS011;68206;59.956;30.234;2024-02-21T05:35:27;8.75;;;4.55;;
78854;SDS011;68206;59.956;30.234;2024-02-21T05:37:56;8.75;;;4.00;;
78854;SDS011;68206;59.956;30.234;2024-02-21T05:40:26;10.18;;;4.50;;
78854;SDS011;68206;59.956;30.234;2024-02-21T05:42:54;8.68;;;4.53;;
78854;SDS011;68206;59.956;30.234;2024-02-21T05:45:22;10.70;;;4.47;;
78854;SDS011;68206;59.956;30.234;2024-02-21T05:47:52;11.35;;;4.45;;
78854;SDS011;68206;59.956;30.234;2024-02-21T05:50:20;9.90;;;4.10;;
78854;SDS011;68206;59.956;30.234;2024-02-21T05:52:52;8.30;;;3.92;;
78854;SDS011;68206;59.956;30.234;2024-02-21T05:55:23;9.05;;;4.05;;
78854;SDS011;68206;59.956;30.234;2024-02-21T05:57:53;10.60;;;4.43;;
78854;SDS011;68206;59.956;30.234;2024-02-21T06:00:23;8.80;;;4.50;;
78854;SDS011;68206;59.956;30.234;2024-02-21T06:02:52;9.65;;;4.30;;
78854;SDS011;68206;59.956;30.234;2024-02-21T06:05:20;7.50;;;4.10;;
78854;SDS011;68206;59.956;30.234;2024-02-21T06:07:48;9.00;;;3.75;;
78854;SDS011;68206;59.956;30.234;2024-02-21T06:10:18;8.90;;;4.50;;
78854;SDS011;68206;59.956;30.234;2024-02-21T06:12:47;11.30;;;4.45;;
78854;SDS011;68206;59.956;30.234;2024-02-21T06:15:15;10.90;;;4.72;;
78854;SDS011;68206;59.956;30.234;2024-02-21T06:17:43;9.05;;;4.10;;
78854;SDS011;68206;59.956;30.234;2024-02-21T06:20:11;9.00;;;4.30;;
78854;SDS011;68206;59.956;30.234;2024-02-21T06:22:40;8.98;;;3.97;;
78854;SDS011;68206;59.956;30.234;2024-02-21T06:25:08;10.93;;;4.40;;
78854;SDS011;68206;59.956;30.234;2024-02-21T06:27:38;8.80;;;3.80;;
78854;SDS011;68206;59.956;30.234;2024-02-21T06:30:07;13.35;;;4.63;;
78854;SDS011;68206;59.956;30.234;2024-02-21T06:32:36;12.27;;;5.18;;
78854;SDS011;68206;59.956;30.234;2024-02-21T06:35:05;10.00;;;4.60;;
78854;SDS011;68206;59.956;30.234;2024-02-21T06:37:34;8.25;;;4.85;;
78854;SDS011;68206;59.956;30.234;2024-02-21T06:40:02;10.27;;;5.22;;
78854;SDS011;68206;59.956;30.234;2024-02-21T06:42:31;10.13;;;3.75;;
78854;SDS011;68206;59.956;30.234;2024-02-21T06:45:00;7.55;;;3.97;;
78854;SDS011;68206;59.956;30.234;2024-02-21T06:47:29;7.70;;;3.85;;
78854;SDS011;68206;59.956;30.234;2024-02-21T06:49:57;8.07;;;3.88;;
78854;SDS011;68206;59.956;30.234;2024-02-21T06:52:25;7.38;;;3.70;;
78854;SDS011;68206;59.956;30.234;2024-02-21T06:54:54;5.75;;;3.20;;
78854;SDS011;68206;59.956;30.234;2024-02-21T06:57:22;8.13;;;4.35;;
78854;SDS011;68206;59.956;30.234;2024-02-21T06:59:50;6.28;;;3.50;;
78854;SDS011;68206;59.956;30.234;2024-02-21T07:02:36;10.98;;;4.00;;
78854;SDS011;68206;59.956;30.234;2024-02-21T07:05:09;9.75;;;4.25;;
78854;SDS011;68206;59.956;30.234;2024-02-21T07:08:13;7.35;;;4.00;;
78854;SDS011;68206;59.956;30.234;2024-02-21T07:10:41;7.80;;;4.07;;
78854;SDS011;68206;59.956;30.234;2024-02-21T07:13:09;10.10;;;3.88;;
78854;SDS011;68206;59.956;30.234;2024-02-21T07:15:37;9.57;;;3.97;;
78854;SDS011;68206;59.956;30.234;2024-02-21T07:18:07;6.75;;;3.65;;
78854;SDS011;68206;59.956;30.234;2024-02-21T07:20:37;9.60;;;3.67;;
78854;SDS011;68206;59.956;30.234;2024-02-21T07:23:11;8.23;;;4.30;;
78854;SDS011;68206;59.956;30.234;2024-02-21T07:26:14;10.00;;;4.60;;
78854;SDS011;68206;59.956;30.234;2024-02-21T07:28:42;9.82;;;4.10;;
78854;SDS011;68206;59.956;30.234;2024-02-21T07:31:10;7.60;;;3.55;;
78854;SDS011;68206;59.956;30.234;2024-02-21T07:33:40;10.32;;;3.92;;
78854;SDS011;68206;59.956;30.234;2024-02-21T07:36:09;9.60;;;4.35;;
78854;SDS011;68206;59.956;30.234;2024-02-21T07:38:39;9.27;;;4.63;;
78854;SDS011;68206;59.956;30.234;2024-02-21T07:41:07;6.28;;;3.55;;
78854;SDS011;68206;59.956;30.234;2024-02-21T07:43:35;8.30;;;3.92;;
78854;SDS011;68206;59.956;30.234;2024-02-21T07:46:14;9.35;;;4.72;;
78854;SDS011;68206;59.956;30.234;2024-02-21T07:49:42;9.82;;;3.90;;
78854;SDS011;68206;59.956;30.234;2024-02-21T07:52:12;10.02;;;4.45;;
78854;SDS011;68206;59.956;30.234;2024-02-21T07:54:40;9.35;;;3.90;;
78854;SDS011;68206;59.956;30.234;2024-02-21T07:57:09;8.05;;;3.75;;
78854;SDS011;68206;59.956;30.234;2024-02-21T07:59:37;6.85;;;3.90;;
78854;SDS011;68206;59.956;30.234;2024-02-21T08:02:05;10.55;;;4.07;;
78854;SDS011;68206;59.956;30.234;2024-02-21T08:04:36;9.38;;;4.47;;
78854;SDS011;68206;59.956;30.234;2024-02-21T08:07:06;9.68;;;3.75;;
78854;SDS011;68206;59.956;30.234;2024-02-21T08:09:34;9.25;;;3.55;;
78854;SDS011;68206;59.956;30.234;2024-02-21T08:12:05;9.13;;;4.28;;
78854;SDS011;68206;59.956;30.234;2024-02-21T08:14:34;10.05;;;4.05;;
78854;SDS011;68206;59.956;30.234;2024-02-21T08:17:03;8.38;;;3.78;;
78854;SDS011;68206;59.956;30.234;2024-02-21T08:19:31;8.68;;;4.25;;
78854;SDS011;68206;59.956;30.234;2024-02-21T08:22:00;14.65;;;5.05;;
78854;SDS011;68206;59.956;30.234;2024-02-21T08:24:31;12.07;;;4.43;;
78854;SDS011;68206;59.956;30.234;2024-02-21T08:26:59;10.30;;;4.00;;
78854;SDS011;68206;59.956;30.234;2024-02-21T08:29:27;8.50;;;3.95;;
78854;SDS011;68206;59.956;30.234;2024-02-21T08:31:56;7.70;;;3.88;;
78854;SDS011;68206;59.956;30.234;2024-02-21T08:34:24;9.63;;;4.40;;
78854;SDS011;68206;59.956;30.234;2024-02-21T08:36:52;10.38;;;4.07;;
78854;SDS011;68206;59.956;30.234;2024-02-21T08:39:21;7.68;;;4.22;;
78854;SDS011;68206;59.956;30.234;2024-02-21T08:41:50;7.78;;;3.85;;
78854;SDS011;68206;59.956;30.234;2024-02-21T08:44:23;9.02;;;3.72;;
78854;SDS011;68206;59.956;30.234;2024-02-21T08:46:54;7.50;;;3.60;;
78854;SDS011;68206;59.956;30.234;2024-02-21T08:49:23;6.78;;;3.78;;
78854;SDS011;68206;59.956;30.234;2024-02-21T08:52:00;7.55;;;3.10;;
78854;SDS011;68206;59.956;30.234;2024-02-21T08:54:29;6.30;;;3.53;;
78854;SDS011;68206;59.956;30.234;2024-02-21T08:56:59;8.23;;;3.03;;
78854;SDS011;68206;59.956;30.234;2024-02-21T08:59:27;8.43;;;4.25;;
78854;SDS011;68206;59.956;30.234;2024-02-21T09:01:57;8.10;;;3.83;;
78854;SDS011;68206;59.956;30.234;2024-02-21T09:04:49;8.43;;;3.65;;
78854;SDS011;68206;59.956;30.234;2024-02-21T09:07:17;13.40;;;3.88;;
78854;SDS011;68206;59.956;30.234;2024-02-21T09:09:47;7.75;;;3.85;;
78854;SDS011;68206;59.956;30.234;2024-02-21T09:12:16;7.80;;;4.07;;
78854;SDS011;68206;59.956;30.234;2024-02-21T09:14:44;10.13;;;4.22;;
78854;SDS011;68206;59.956;30.234;2024-02-21T09:17:16;8.75;;;3.80;;
78854;SDS011;68206;59.956;30.234;2024-02-21T09:19:45;10.48;;;4.03;;
78854;SDS011;68206;59.956;30.234;2024-02-21T09:22:13;9.88;;;4.45;;
78854;SDS011;68206;59.956;30.234;2024-02-21T09:24:41;7.85;;;3.85;;
78854;SDS011;68206;59.956;30.234;2024-02-21T09:27:10;11.32;;;4.75;;
78854;SDS011;68206;59.956;30.234;2024-02-21T09:29:45;8.10;;;4.05;;
78854;SDS011;68206;59.956;30.234;2024-02-21T09:32:15;10.98;;;3.72;;
78854;SDS011;68206;59.956;30.234;2024-02-21T09:34:46;9.57;;;3.80;;
78854;SDS011;68206;59.956;30.234;2024-02-21T09:37:14;10.25;;;3.70;;
78854;SDS011;68206;59.956;30.234;2024-02-21T09:39:44;6.70;;;3.90;;
78854;SDS011;68206;59.956;30.234;2024-02-21T09:42:14;6.20;;;3.42;;
78854;SDS011;68206;59.956;30.234;2024-02-21T09:44:48;8.23;;;4.13;;
78854;SDS011;68206;59.956;30.234;2024-02-21T09:47:19;7.20;;;3.95;;
78854;SDS011;68206;59.956;30.234;2024-02-21T09:49:52;7.68;;;3.90;;
78854;SDS011;68206;59.956;30.234;2024-02-21T09:52:23;10.23;;;4.35;;
78854;SDS011;68206;59.956;30.234;2024-02-21T09:54:54;8.77;;;4.15;;
78854;SDS011;68206;59.956;30.234;2024-02-21T09:57:24;10.13;;;4.20;;
78854;SDS011;68206;59.956;30.234;2024-02-21T09:59:54;9.13;;;4.13;;
78854;SDS011;68206;59.956;30.234;2024-02-21T10:02:26;8.65;;;4.15;;
78854;SDS011;68206;59.956;30.234;2024-02-21T10:04:55;9.20;;;4.75;;
78854;SDS011;68206;59.956;30.234;2024-02-21T10:07:23;9.93;;;4.55;;
78854;SDS011;68206;59.956;30.234;2024-02-21T10:10:00;9.65;;;4.07;;
78854;SDS011;68206;59.956;30.234;2024-02-21T10:12:30;12.18;;;4.65;;
78854;SDS011;68206;59.956;30.234;2024-02-21T10:15:01;14.95;;;4.95;;
78854;SDS011;68206;59.956;30.234;2024-02-21T10:17:30;7.32;;;3.83;;
78854;SDS011;68206;59.956;30.234;2024-02-21T10:20:06;8.90;;;3.70;;
78854;SDS011;68206;59.956;30.234;2024-02-21T10:22:35;7.70;;;3.75;;
78854;SDS011;68206;59.956;30.234;2024-02-21T10:25:07;14.25;;;4.82;;
78854;SDS011;68206;59.956;30.234;2024-02-21T10:27:37;9.18;;;4.25;;
78854;SDS011;68206;59.956;30.234;2024-02-21T10:30:06;11.57;;;4.97;;
78854;SDS011;68206;59.956;30.234;2024-02-21T10:32:48;12.63;;;4.65;;
78854;SDS011;68206;59.956;30.234;2024-02-21T10:35:25;15.20;;;4.78;;
78854;SDS011;68206;59.956;30.234;2024-02-21T10:37:55;10.60;;;4.30;;
78854;SDS011;68206;59.956;30.234;2024-02-21T10:40:24;10.07;;;4.55;;
78854;SDS011;68206;59.956;30.234;2024-02-21T10:42:55;8.77;;;4.82;;
78854;SDS011;68206;59.956;30.234;2024-02-21T10:45:29;11.90;;;4.57;;
78854;SDS011;68206;59.956;30.234;2024-02-21T10:48:03;11.00;;;4.75;;
78854;SDS011;68206;59.956;30.234;2024-02-21T10:50:43;10.48;;;4.95;;
78854;SDS011;68206;59.956;30.234;2024-02-21T10:53:24;10.52;;;4.70;;
78854;SDS011;68206;59.956;30.234;2024-02-21T10:56:00;10.85;;;5.05;;
78854;SDS011;68206;59.956;30.234;2024-02-21T10:58:40;11.25;;;5.03;;
78854;SDS011;68206;59.956;30.234;2024-02-21T11:01:11;13.60;;;5.63;;
78854;SDS011;68206;59.956;30.234;2024-02-21T11:03:43;14.35;;;5.07;;
78854;SDS011;68206;59.956;30.234;2024-02-21T11:06:13;12.75;;;5.65;;
78854;SDS011;68206;59.956;30.234;2024-02-21T11:08:44;16.48;;;6.10;;
78854;SDS011;68206;59.956;30.234;2024-02-21T11:11:12;11.50;;;5.43;;
78854;SDS011;68206;59.956;30.234;2024-02-21T11:14:05;13.35;;;4.68;;
78854;SDS011;68206;59.956;30.234;2024-02-21T11:16:35;12.98;;;4.78;;
78854;SDS011;68206;59.956;30.234;2024-02-21T11:19:07;13.82;;;5.25;;
78854;SDS011;68206;59.956;30.234;2024-02-21T11:21:36;10.25;;;4.82;;
78854;SDS011;68206;59.956;30.234;2024-02-21T11:24:06;10.00;;;5.15;;
78854;SDS011;68206;59.956;30.234;2024-02-21T11:26:36;11.98;;;4.88;;
78854;SDS011;68206;59.956;30.234;2024-02-21T11:29:08;13.55;;;5.35;;
78854;SDS011;68206;59.956;30.234;2024-02-21T11:31:39;12.40;;;5.22;;
78854;SDS011;68206;59.956;30.234;2024-02-21T11:34:11;15.43;;;5.88;;
78854;SDS011;68206;59.956;30.234;2024-02-21T11:36:46;13.10;;;5.32;;
78854;SDS011;68206;59.956;30.234;2024-02-21T11:39:19;14.13;;;5.63;;
78854;SDS011;68206;59.956;30.234;2024-02-21T11:42:00;14.55;;;6.57;;
78854;SDS011;68206;59.956;30.234;2024-02-21T11:44:30;14.93;;;6.10;;
78854;SDS011;68206;59.956;30.234;2024-02-21T11:47:00;14.25;;;5.82;;
78854;SDS011;68206;59.956;30.234;2024-02-21T11:49:30;13.15;;;5.53;;
78854;SDS011;68206;59.956;30.234;2024-02-21T11:52:02;12.18;;;5.78;;
78854;SDS011;68206;59.956;30.234;2024-02-21T11:54:32;17.15;;;5.95;;
78854;SDS011;68206;59.956;30.234;2024-02-21T11:57:00;14.90;;;6.00;;
78854;SDS011;68206;59.956;30.234;2024-02-21T11:59:32;13.07;;;5.88;;
78854;SDS011;68206;59.956;30.234;2024-02-21T12:02:00;15.18;;;6.03;;
78854;SDS011;68206;59.956;30.234;2024-02-21T12:04:30;12.90;;;5.97;;
78854;SDS011;68206;59.956;30.234;2024-02-21T12:07:00;16.83;;;6.38;;
78854;SDS011;68206;59.956;30.234;2024-02-21T12:09:31;14.77;;;6.22;;
78854;SDS011;68206;59.956;30.234;2024-02-21T12:12:02;14.60;;;5.95;;
78854;SDS011;68206;59.956;30.234;2024-02-21T12:14:33;13.60;;;6.40;;
78854;SDS011;68206;59.956;30.234;2024-02-21T12:17:04;14.10;;;6.22;;
78854;SDS011;68206;59.956;30.234;2024-02-21T12:19:33;15.60;;;6.53;;
78854;SDS011;68206;59.956;30.234;2024-02-21T12:22:02;16.77;;;6.50;;
78854;SDS011;68206;59.956;30.234;2024-02-21T12:24:33;13.07;;;6.07;;
78854;SDS011;68206;59.956;30.234;2024-02-21T12:27:03;19.77;;;7.05;;
78854;SDS011;68206;59.956;30.234;2024-02-21T12:29:34;14.23;;;6.32;;
78854;SDS011;68206;59.956;30.234;2024-02-21T12:32:03;14.63;;;6.05;;
78854;SDS011;68206;59.956;30.234;2024-02-21T12:34:32;20.90;;;7.10;;
78854;SDS011;68206;59.956;30.234;2024-02-21T12:37:18;17.20;;;6.47;;
78854;SDS011;68206;59.956;30.234;2024-02-21T12:39:48;13.63;;;6.20;;
78854;SDS011;68206;59.956;30.234;2024-02-21T12:42:16;14.55;;;5.90;;
78854;SDS011;68206;59.956;30.234;2024-02-21T12:44:46;17.20;;;7.65;;
78854;SDS011;68206;59.956;30.234;2024-02-21T12:47:14;16.02;;;6.50;;
78854;SDS011;68206;59.956;30.234;2024-02-21T12:49:43;15.20;;;6.38;;
78854;SDS011;68206;59.956;30.234;2024-02-21T12:52:12;17.30;;;7.95;;
78854;SDS011;68206;59.956;30.234;2024-02-21T12:54:41;15.60;;;5.85;;
78854;SDS011;68206;59.956;30.234;2024-02-21T12:57:10;13.20;;;6.15;;
78854;SDS011;68206;59.956;30.234;2024-02-21T12:59:38;16.80;;;8.10;;
78854;SDS011;68206;59.956;30.234;2024-02-21T13:02:08;15.98;;;7.25;;
78854;SDS011;68206;59.956;30.234;2024-02-21T13:04:39;14.10;;;6.47;;
78854;SDS011;68206;59.956;30.234;2024-02-21T13:07:10;17.05;;;7.47;;
78854;SDS011;68206;59.956;30.234;2024-02-21T13:09:38;18.02;;;6.72;;
78854;SDS011;68206;59.956;30.234;2024-02-21T13:12:07;15.88;;;6.80;;
78854;SDS011;68206;59.956;30.234;2024-02-21T13:14:37;17.48;;;7.60;;
78854;SDS011;68206;59.956;30.234;2024-02-21T13:17:07;12.57;;;5.95;;
78854;SDS011;68206;59.956;30.234;2024-02-21T13:19:36;14.57;;;6.80;;
78854;SDS011;68206;59.956;30.234;2024-02-21T13:22:04;15.95;;;7.25;;
78854;SDS011;68206;59.956;30.234;2024-02-21T13:24:33;16.80;;;7.25;;
78854;SDS011;68206;59.956;30.234;2024-02-21T13:27:02;17.85;;;7.88;;
78854;SDS011;68206;59.956;30.234;2024-02-21T13:29:31;21.67;;;8.48;;
78854;SDS011;68206;59.956;30.234;2024-02-21T13:32:00;17.65;;;8.32;;
78854;SDS011;68206;59.956;30.234;2024-02-21T13:34:30;18.27;;;7.55;;
78854;SDS011;68206;59.956;30.234;2024-02-21T13:36:59;25.35;;;7.55;;
78854;SDS011;68206;59.956;30.234;2024-02-21T13:39:27;16.15;;;7.25;;
78854;SDS011;68206;59.956;30.234;2024-02-21T13:41:56;17.40;;;7.18;;
78854;SDS011;68206;59.956;30.234;2024-02-21T13:44:26;18.88;;;8.23;;
78854;SDS011;68206;59.956;30.234;2024-02-21T13:47:01;19.73;;;7.65;;
78854;SDS011;68206;59.956;30.234;2024-02-21T13:49:32;19.10;;;7.70;;
78854;SDS011;68206;59.956;30.234;2024-02-21T13:52:01;17.38;;;7.50;;
78854;SDS011;68206;59.956;30.234;2024-02-21T13:54:29;18.80;;;6.93;;
78854;SDS011;68206;59.956;30.234;2024-02-21T13:56:57;18.58;;;7.30;;
78854;SDS011;68206;59.956;30.234;2024-02-21T13:59:24;17.27;;;6.78;;
78854;SDS011;68206;59.956;30.234;2024-02-21T14:01:53;17.02;;;7.78;;
78854;SDS011;68206;59.956;30.234;2024-02-21T14:04:22;16.02;;;7.03;;
78854;SDS011;68206;59.956;30.234;2024-02-21T14:06:52;15.27;;;6.22;;
78854;SDS011;68206;59.956;30.234;2024-02-21T14:09:20;18.17;;;7.47;;
78854;SDS011;68206;59.956;30.234;2024-02-21T14:11:49;21.90;;;7.72;;
78854;SDS011;68206;59.956;30.234;2024-02-21T14:14:17;14.15;;;6.25;;
78854;SDS011;68206;59.956;30.234;2024-02-21T14:16:47;13.85;;;5.95;;
78854;SDS011;68206;59.956;30.234;2024-02-21T14:19:16;14.32;;;6.78;;
78854;SDS011;68206;59.956;30.234;2024-02-21T14:21:46;13.02;;;6.32;;
78854;SDS011;68206;59.956;30.234;2024-02-21T14:24:15;13.88;;;6.97;;
78854;SDS011;68206;59.956;30.234;2024-02-21T14:26:43;15.60;;;6.63;;
78854;SDS011;68206;59.956;30.234;2024-02-21T14:29:12;13.98;;;6.07;;
78854;SDS011;68206;59.956;30.234;2024-02-21T14:31:41;16.60;;;6.45;;
78854;SDS011;68206;59.956;30.234;2024-02-21T14:34:09;16.27;;;6.53;;
78854;SDS011;68206;59.956;30.234;2024-02-21T14:36:38;15.27;;;6.90;;
78854;SDS011;68206;59.956;30.234;2024-02-21T14:39:21;14.98;;;6.82;;
78854;SDS011;68206;59.956;30.234;2024-02-21T14:44:21;16.10;;;7.20;;
78854;SDS011;68206;59.956;30.234;2024-02-21T14:46:49;15.18;;;6.13;;